Airfield :
LOGIN :

Register | Disclaimer

   EN    FR    IT 

 










Legend :    VFR   Marginal VFR   IFR   Intensive IFR   Very Intensive IFR
Visi :
Ceiling :
>= 8 km
>= 3000ft
5 to 8 km
1000 to 3000 ft
1500m to 5 km
500 to 1000 ft
800 to 1500m
200 to 500 ft
< 800m
< 200 ft
Symbols :   Thunderstorms  Fog  Heavy snow  Heavy precipitations  Wind > 20 kt
SIGMETs :     Misc.  Thunderstorms  Icing  Turbulence  Mountain Waves  Volcanic Ashes







- Airport Elevation : 32 ft
- IATA code : LKZ


EGUL - RAF Lakenheath

CURRENT METAR :
  • 151956Z AUTO 14004KT 9999 CLR 24/12 A2992 RMK AO2 SLP135 T02380118 $

EXPIRED METARs :
  • 151856Z AUTO 12005KT 9999 SCT075 26/12 A2991 RMK AO2 SLP131 T02610118 $
  • 151756Z AUTO 15010G15KT 9999 FEW085 28/11 A2989 RMK AO2 SLP125 T02840114 10307 20279 57010 $

TAF TAF EGUL
Valid from the 15 at 20:00 until the 17 at 02:00 UTC


152008Z 1520/1702 15009KT 9999 FEW050 BKN080 QNH2986INS
BECMG 1618/1619 VRB06KT 8000 -SHRA BKN040 QNH2982INS
BECMG 1622/1623 VRB06KT 9999 NSW SCT020 BKN060 QNH2990INS TX30/1614Z TN13/1604Z
No reported NOTAMs for that airfield.



MET'MAP, your aeronautical weather chart ! - Copyright ORBIFLY December 2007 - Disclaimer

ORBIFLY MET'MAP TEAM :

Programming & Development : Alexandra Zaïnal
Concept & Development : Baudouin d'Aumeries
Co-Development & Prog : Marc-Olivier Méhu
Technical & hardware support : Manuel Goepfert

Contact : metmap@orbifly.com




SOURCES & CREDITS :

   NOAA